Time;durP1;ratioP1;P1;durP2;ratioP2;P2;SDS_P1;SDS_P2;PMS_P1;PMS_P2;Temp;Humidity;BMP_temperature;BMP_pressure;BME280_temperature;BME280_humidity;BME280_pressure;Samples;Min_cycle;Max_cycle;Signal;HPM_P1;HPM_P2
2021/10/12 00:01:47;;;;;;;;;;;;;;;9.04;71.71;98384.09;1660775;85;20223;-86
2021/10/12 00:04:13;;;;;;;;;;;;;;;9.04;71.75;98384.09;1659209;84;24749;-86
2021/10/12 00:06:39;;;;;;;;;;;;;;;9.03;71.83;98383.26;1648590;85;21958;-84
2021/10/12 00:09:05;;;;;;;;;;;;;;;9.01;71.87;98384.28;1647133;85;25979;-84
2021/10/12 00:11:31;;;;;;;;;;;;;;;9.00;71.91;98385.23;1650289;85;24508;-83
2021/10/12 00:13:58;;;;;;;;;;;;;;;8.99;71.97;98392.23;1656084;85;20241;-86
2021/10/12 00:16:24;;;;;;;;;;;;;;;9.00;72.03;98387.35;1620820;87;24765;-86
2021/10/12 00:18:50;;;;;;;;;;;;;;;9.02;72.09;98385.95;1619677;87;22155;-83
2021/10/12 00:21:16;;;;;;;;;;;;;;;9.03;72.14;98383.72;1616955;87;26138;-83
2021/10/12 00:23:42;;;;;;;;;;;;;;;9.02;72.21;98384.66;1650569;85;24509;-83
2021/10/12 00:26:08;;;;;;;;;;;;;;;9.02;72.26;98378.13;1647505;85;20310;-82
2021/10/12 00:28:35;;;;;;;;;;;;;;;9.01;72.32;98379.06;1648719;85;25025;-83
2021/10/12 00:31:02;;;;;;;;;;;;;;;8.96;72.35;98373.30;1645728;84;22812;-83
2021/10/12 00:33:28;;;;;;;;;;;;;;;8.98;72.40;98375.35;1630019;87;26157;-84
2021/10/12 00:35:54;;;;;;;;;;;;;;;8.95;72.42;98370.31;1653455;85;20865;-82
2021/10/12 00:38:22;;;;;;;;;;;;;;;8.93;72.45;98369.13;1662975;85;20215;-83
2021/10/12 00:40:48;;;;;;;;;;;;;;;8.93;72.47;98365.67;1665491;84;24719;-87
2021/10/12 00:43:14;;;;;;;;;;;;;;;8.95;72.50;98365.09;1654793;85;21447;-86
2021/10/12 00:45:41;;;;;;;;;;;;;;;8.95;72.53;98363.78;1661249;85;26033;-86
2021/10/12 00:48:08;;;;;;;;;;;;;;;8.93;72.55;98361.30;1665014;85;24564;-82
2021/10/12 00:50:41;;;;;;;;;;;;;;;8.96;72.60;98361.55;1606166;85;20237;-82
2021/10/12 00:53:06;;;;;;;;;;;;;;;8.98;72.64;98357.08;1604244;87;24792;-82
2021/10/12 00:55:32;;;;;;;;;;;;;;;8.99;72.68;98355.69;1605113;87;21797;-86
2021/10/12 00:57:59;;;;;;;;;;;;;;;9.03;72.71;98345.88;1594082;88;26064;-86
2021/10/12 01:00:25;;;;;;;;;;;;;;;9.02;72.76;98344.19;1590436;88;24544;-86
2021/10/12 01:02:52;;;;;;;;;;;;;;;8.99;72.77;98346.55;1589866;88;20219;-84
2021/10/12 01:05:18;;;;;;;;;;;;;;;8.97;72.80;98341.05;1588737;88;24816;-87
2021/10/12 01:07:44;;;;;;;;;;;;;;;8.94;72.79;98341.27;1623215;86;22133;-83
2021/10/12 01:10:11;;;;;;;;;;;;;;;8.92;72.83;98339.20;1586435;88;21854;-83
2021/10/12 01:12:37;;;;;;;;;;;;;;;8.88;72.84;98341.19;1600933;87;24638;-86
2021/10/12 01:15:04;;;;;;;;;;;;;;;8.86;72.84;98338.29;1599876;87;20275;-86
2021/10/12 01:17:30;;;;;;;;;;;;;;;8.87;72.87;98337.36;1582498;88;24765;-87
2021/10/12 01:19:56;;;;;;;;;;;;;;;8.87;72.90;98340.81;1602438;87;21920;-83
2021/10/12 01:22:22;;;;;;;;;;;;;;;8.83;72.94;98342.42;1600593;87;25980;-83
2021/10/12 01:24:48;;;;;;;;;;;;;;;8.80;72.93;98338.22;1584098;88;24482;-83
2021/10/12 01:27:14;;;;;;;;;;;;;;;8.77;72.97;98334.52;1603479;87;20350;-83
2021/10/12 01:29:41;;;;;;;;;;;;;;;8.74;72.98;98336.84;1601450;87;24808;-82
2021/10/12 01:32:07;;;;;;;;;;;;;;;8.68;73.02;98329.40;1585367;89;22052;-82
2021/10/12 01:34:33;;;;;;;;;;;;;;;8.66;73.05;98324.77;1586138;89;26753;-82
2021/10/12 01:37:02;;;;;;;;;;;;;;;8.61;73.09;98321.62;1588256;89;24619;-82
2021/10/12 01:39:29;;;;;;;;;;;;;;;8.57;73.11;98314.89;1588404;89;20272;-85
2021/10/12 01:41:55;;;;;;;;;;;;;;;8.57;73.15;98313.59;1603816;87;24777;-86
2021/10/12 01:44:21;;;;;;;;;;;;;;;8.56;73.17;98308.50;1586663;88;22007;-86
2021/10/12 01:46:47;;;;;;;;;;;;;;;8.51;73.20;98307.45;1602246;87;26032;-84
2021/10/12 01:49:13;;;;;;;;;;;;;;;8.50;73.21;98307.58;1585363;89;24488;-83
2021/10/12 01:51:40;;;;;;;;;;;;;;;8.49;73.25;98303.30;1584841;89;20241;-83
2021/10/12 01:54:14;;;;;;;;;;;;;;;8.49;73.28;98302.83;1605102;88;20261;-84
2021/10/12 01:56:40;;;;;;;;;;;;;;;8.53;73.34;98297.78;1598618;88;22249;-84
2021/10/12 01:59:06;;;;;;;;;;;;;;;8.56;73.39;98297.60;1600871;88;26148;-84
2021/10/12 02:01:32;;;;;;;;;;;;;;;8.54;73.44;98294.70;1601895;88;24471;-84
2021/10/12 02:03:58;;;;;;;;;;;;;;;8.60;73.51;98296.92;1606285;88;20352;-84
2021/10/12 02:06:24;;;;;;;;;;;;;;;8.57;73.56;98291.42;1597748;88;24772;-82
2021/10/12 02:08:50;;;;;;;;;;;;;;;8.58;73.60;98285.74;1605029;88;21977;-85
2021/10/12 02:11:16;;;;;;;;;;;;;;;8.59;73.64;98276.98;1596880;88;25959;-85
2021/10/12 02:13:42;;;;;;;;;;;;;;;8.63;73.68;98274.55;1603974;88;24403;-84
2021/10/12 02:16:09;;;;;;;;;;;;;;;8.65;73.72;98272.22;1599921;87;20381;-85
2021/10/12 02:18:35;;;;;;;;;;;;;;;8.69;73.79;98273.69;1603960;88;24715;-85
2021/10/12 02:21:01;;;;;;;;;;;;;;;8.75;73.86;98273.76;1600596;88;21963;-85
2021/10/12 02:23:27;;;;;;;;;;;;;;;8.77;73.89;98267.52;1592487;88;26166;-85
2021/10/12 02:25:53;;;;;;;;;;;;;;;8.78;73.94;98266.55;1648244;86;25100;-84
2021/10/12 02:28:19;;;;;;;;;;;;;;;8.77;73.96;98267.98;1639451;86;20240;-84
2021/10/12 02:30:46;;;;;;;;;;;;;;;8.76;74.00;98268.45;1643026;86;24880;-85
2021/10/12 02:33:12;;;;;;;;;;;;;;;8.82;74.05;98264.60;1648797;86;22275;-85
2021/10/12 02:35:38;;;;;;;;;;;;;;;8.85;74.07;98259.63;1642505;85;25924;-85
2021/10/12 02:38:04;;;;;;;;;;;;;;;8.92;74.11;98263.52;1639353;86;24603;-82
2021/10/12 02:40:31;;;;;;;;;;;;;;;8.96;74.12;98265.83;1645237;86;20194;-83
2021/10/12 02:42:59;;;;;;;;;;;;;;;8.96;74.15;98264.52;1673462;84;20242;-82
2021/10/12 02:45:25;;;;;;;;;;;;;;;8.97;74.15;98267.50;1648494;86;21911;-83
2021/10/12 02:47:51;;;;;;;;;;;;;;;8.97;74.17;98267.50;1640251;86;25982;-86
2021/10/12 02:50:17;;;;;;;;;;;;;;;8.95;74.18;98268.53;1643442;85;24503;-85
2021/10/12 02:52:43;;;;;;;;;;;;;;;8.91;74.18;98265.76;1638297;86;20225;-86
2021/10/12 02:55:09;;;;;;;;;;;;;;;8.87;74.20;98261.69;1641277;86;24827;-86
2021/10/12 02:57:36;;;;;;;;;;;;;;;8.86;74.21;98263.45;1637862;86;21913;-84
2021/10/12 03:00:04;;;;;;;;;;;;;;;8.82;74.21;98255.47;1625995;86;25794;-85
2021/10/12 03:02:30;;;;;;;;;;;;;;;8.80;74.22;98257.33;1639252;86;24522;-85
2021/10/12 03:04:57;;;;;;;;;;;;;;;8.79;74.25;98265.63;1639699;85;20252;-85
2021/10/12 03:07:23;;;;;;;;;;;;;;;8.76;74.30;98264.53;1641011;86;24842;-85
2021/10/12 03:09:49;;;;;;;;;;;;;;;8.73;74.31;98256.89;1643753;86;21943;-83
2021/10/12 03:12:15;;;;;;;;;;;;;;;8.77;74.36;98247.95;1647192;85;25988;-82
2021/10/12 03:14:41;;;;;;;;;;;;;;;8.83;74.40;98245.88;1638816;86;24530;-86
2021/10/12 03:17:07;;;;;;;;;;;;;;;8.86;74.41;98239.97;1637077;86;20217;-86
2021/10/12 03:19:33;;;;;;;;;;;;;;;8.87;74.47;98238.20;1632679;86;20814;-87
2021/10/12 03:22:07;;;;;;;;;;;;;;;8.84;74.46;98225.37;1643039;86;21954;-86
2021/10/12 03:24:27;;;;;;;;;;;;;;;8.80;74.45;98211.20;1637287;86;26018;-87
2021/10/12 03:26:55;;;;;;;;;;;;;;;8.75;74.45;98209.37;1659912;85;20250;-86
2021/10/12 03:29:21;;;;;;;;;;;;;;;8.71;74.41;98220.95;1646631;86;20190;-83
2021/10/12 03:31:47;;;;;;;;;;;;;;;8.69;74.42;98229.34;1638407;86;24820;-85
2021/10/12 03:34:13;;;;;;;;;;;;;;;8.68;74.41;98231.57;1644995;86;22021;-85
2021/10/12 03:36:40;;;;;;;;;;;;;;;8.71;74.42;98227.94;1637785;86;26020;-84
2021/10/12 03:39:06;;;;;;;;;;;;;;;8.68;74.40;98232.04;1641501;86;24658;-86
2021/10/12 03:41:32;;;;;;;;;;;;;;;8.66;74.43;98228.71;1652975;86;20218;-85
2021/10/12 03:43:58;;;;;;;;;;;;;;;8.64;74.42;98234.02;1637914;86;24814;-84
2021/10/12 03:46:24;;;;;;;;;;;;;;;8.63;74.43;98227.13;1681021;84;21833;-86
2021/10/12 03:48:50;;;;;;;;;;;;;;;8.64;74.45;98221.44;1639211;86;25972;-84
2021/10/12 03:51:16;;;;;;;;;;;;;;;8.61;74.46;98216.44;1640961;85;24496;-84
2021/10/12 03:53:42;;;;;;;;;;;;;;;8.58;74.50;98210.10;1618330;87;20868;-84
2021/10/12 03:56:08;;;;;;;;;;;;;;;8.56;74.53;98210.69;1632044;86;24856;-84
2021/10/12 03:58:35;;;;;;;;;;;;;;;8.54;74.53;98218.61;1640827;86;22052;-83
2021/10/12 04:01:01;;;;;;;;;;;;;;;8.59;74.60;98211.78;1645325;86;26026;-84
2021/10/12 04:03:27;;;;;;;;;;;;;;;8.61;74.62;98209.45;1654072;86;24488;-83
2021/10/12 04:05:53;;;;;;;;;;;;;;;8.57;74.66;98203.20;1639977;86;20482;-83
2021/10/12 04:08:19;;;;;;;;;;;;;;;8.50;74.67;98196.28;1652916;86;24702;-87
2021/10/12 04:10:45;;;;;;;;;;;;;;;8.46;74.71;98197.39;1630960;86;22022;-81
2021/10/12 04:13:11;;;;;;;;;;;;;;;8.46;74.69;98193.48;1642021;86;26037;-86
2021/10/12 04:15:37;;;;;;;;;;;;;;;8.47;74.72;98178.67;1644917;86;24712;-82
2021/10/12 04:18:06;;;;;;;;;;;;;;;8.47;74.73;98184.72;1642040;86;20325;-82
2021/10/12 04:20:34;;;;;;;;;;;;;;;8.45;74.71;98187.08;1644371;86;24802;-86
2021/10/12 04:23:00;;;;;;;;;;;;;;;8.46;74.71;98187.42;1645132;86;22753;-86
2021/10/12 04:25:28;;;;;;;;;;;;;;;8.45;74.69;98181.86;1645911;84;20759;-86
2021/10/12 04:27:55;;;;;;;;;;;;;;;8.41;74.70;98181.20;1646491;86;25082;-86
2021/10/12 04:30:21;;;;;;;;;;;;;;;8.39;74.66;98177.42;1629075;86;20495;-86
2021/10/12 04:32:47;;;;;;;;;;;;;;;8.39;74.65;98175.28;1633254;86;24811;-87
2021/10/12 04:35:13;;;;;;;;;;;;;;;8.39;74.67;98174.81;1637428;86;21852;-85
2021/10/12 04:37:40;;;;;;;;;;;;;;;8.41;74.68;98170.78;1636285;86;25979;-86
2021/10/12 04:40:07;;;;;;;;;;;;;;;8.38;74.72;98164.47;1646888;86;24471;-86
2021/10/12 04:42:34;;;;;;;;;;;;;;;8.38;74.71;98164.47;1640193;86;20503;-86
2021/10/12 04:45:00;;;;;;;;;;;;;;;8.34;74.74;98163.01;1645114;85;24918;-83
2021/10/12 04:47:26;;;;;;;;;;;;;;;8.34;74.74;98164.31;1647069;86;22048;-84
2021/10/12 04:49:53;;;;;;;;;;;;;;;8.32;74.76;98167.48;1640590;86;26053;-85
2021/10/12 04:52:19;;;;;;;;;;;;;;;8.25;74.76;98160.95;1634430;86;20473;-87
2021/10/12 04:54:49;;;;;;;;;;;;;;;8.23;74.79;98159.77;1671113;84;20197;-86
2021/10/12 04:57:15;;;;;;;;;;;;;;;8.26;74.82;98162.63;1639895;86;24780;-82
2021/10/12 04:59:46;;;;;;;;;;;;;;;8.24;74.88;98164.48;1640299;86;22071;-83
2021/10/12 05:02:15;;;;;;;;;;;;;;;8.18;74.94;98166.21;1632674;86;26051;-87
2021/10/12 05:04:41;;;;;;;;;;;;;;;8.14;75.00;98164.25;1639254;86;24544;-87
2021/10/12 05:07:08;;;;;;;;;;;;;;;8.11;75.05;98173.58;1633060;86;20447;-82
2021/10/12 05:09:34;;;;;;;;;;;;;;;8.20;75.13;98175.59;1642840;86;24743;-83
2021/10/12 05:12:00;;;;;;;;;;;;;;;8.23;75.20;98161.53;1642414;86;22205;-84
2021/10/12 05:14:26;;;;;;;;;;;;;;;8.22;75.24;98148.13;1633039;86;26028;-83
2021/10/12 05:16:55;;;;;;;;;;;;;;;8.20;75.31;98149.98;1639988;85;20203;-85
2021/10/12 05:19:21;;;;;;;;;;;;;;;8.16;75.37;98148.05;1628828;86;20307;-82
2021/10/12 05:21:49;;;;;;;;;;;;;;;8.15;75.45;98148.14;1631230;86;24731;-88
2021/10/12 05:24:14;;;;;;;;;;;;;;;;;;1631668;86;22045;-87
2021/10/12 05:26:41;;;;;;;;;;;;;;;8.12;75.58;98143.98;1629570;86;21176;-83
2021/10/12 05:29:09;;;;;;;;;;;;;;;8.14;75.67;98147.77;1631075;86;24427;-83
2021/10/12 05:31:35;;;;;;;;;;;;;;;8.22;75.75;98154.64;1630704;86;20302;-86
2021/10/12 05:34:03;;;;;;;;;;;;;;;8.22;75.85;98152.88;1627815;86;20300;-87
2021/10/12 05:36:29;;;;;;;;;;;;;;;8.23;75.92;98151.95;1625182;87;22721;-87
2021/10/12 05:38:55;;;;;;;;;;;;;;;8.26;76.01;98145.68;1628217;86;26083;-87
2021/10/12 05:41:23;;;;;;;;;;;;;;;8.24;76.09;98144.93;1604011;88;24405;-84
2021/10/12 05:43:51;;;;;;;;;;;;;;;8.25;76.17;98144.84;1634068;86;20311;-85
2021/10/12 05:46:18;;;;;;;;;;;;;;;8.29;76.25;98148.91;1644107;85;24907;-87
2021/10/12 05:48:44;;;;;;;;;;;;;;;8.27;76.33;98142.98;1643282;85;21991;-87
2021/10/12 05:51:12;;;;;;;;;;;;;;;8.27;76.40;98142.14;1647345;85;26094;-83
2021/10/12 05:56:14;;;;;;;;;;;;;;;8.30;76.51;98152.39;1640675;85;20218;-86
2021/10/12 05:58:49;;;;;;;;;;;;;;;8.31;76.57;98152.30;1644435;85;24758;-87
2021/10/12 06:01:17;;;;;;;;;;;;;;;8.31;76.62;98152.77;1641363;85;21965;-85
2021/10/12 06:03:43;;;;;;;;;;;;;;;8.27;76.66;98155.17;1640202;85;26012;-86
2021/10/12 06:06:11;;;;;;;;;;;;;;;8.27;76.73;98152.11;1642426;85;24626;-88
2021/10/12 06:08:38;;;;;;;;;;;;;;;8.25;76.79;98153.12;1639644;85;20214;-88
2021/10/12 06:11:05;;;;;;;;;;;;;;;8.24;76.83;98150.14;1639264;85;24795;-86
2021/10/12 06:13:33;;;;;;;;;;;;;;;8.25;76.92;98159.18;1645520;85;21993;-88
2021/10/12 06:16:00;;;;;;;;;;;;;;;8.29;76.99;98164.55;1613318;87;26691;-88
2021/10/12 06:18:27;;;;;;;;;;;;;;;8.33;77.09;98160.03;1604785;87;24398;-87
2021/10/12 06:20:53;;;;;;;;;;;;;;;8.34;77.16;98159.94;1640715;85;20231;-85
2021/10/12 06:23:20;;;;;;;;;;;;;;;8.38;77.24;98168.38;1637143;85;24742;-87
2021/10/12 06:25:47;;;;;;;;;;;;;;;8.42;77.31;98176.37;1605909;87;21984;-88
2021/10/12 06:28:14;;;;;;;;;;;;;;;8.48;77.40;98173.36;1637260;86;25841;-88
2021/10/12 06:30:41;;;;;;;;;;;;;;;8.50;77.49;98182.40;1635254;86;24422;-87
2021/10/12 06:33:08;;;;;;;;;;;;;;;8.47;77.57;98183.42;1620300;87;20224;-83
2021/10/12 06:35:34;;;;;;;;;;;;;;;8.46;77.65;98183.05;1638871;86;25463;-87
2021/10/12 06:38:01;;;;;;;;;;;;;;;8.50;77.72;98187.61;1636647;86;22063;-86
2021/10/12 06:40:28;;;;;;;;;;;;;;;8.50;77.80;98179.33;1640704;86;26038;-86
2021/10/12 06:42:54;;;;;;;;;;;;;;;8.53;77.86;98185.63;1637239;86;24486;-85
2021/10/12 06:45:21;;;;;;;;;;;;;;;8.60;77.96;98183.46;1640861;86;20237;-84
2021/10/12 06:47:50;;;;;;;;;;;;;;;8.71;78.04;98184.43;1642052;86;24821;-85
2021/10/12 06:50:18;;;;;;;;;;;;;;;8.75;78.09;98189.80;1642261;86;22063;-88
2021/10/12 06:52:47;;;;;;;;;;;;;;;8.79;78.13;98178.69;1653718;85;26818;-88
2021/10/12 06:55:15;;;;;;;;;;;;;;;8.77;78.16;98189.25;1653527;86;24541;-87
2021/10/12 06:57:41;;;;;;;;;;;;;;;8.78;78.19;98189.59;1659638;85;20172;-84
2021/10/12 07:00:11;;;;;;;;;;;;;;;8.75;78.20;98189.80;1657521;85;24738;-87
2021/10/12 07:02:37;;;;;;;;;;;;;;;8.76;78.20;98195.39;1659342;85;22703;-87
2021/10/12 07:05:04;;;;;;;;;;;;;;;8.77;78.22;98193.16;1653608;85;26076;-86
2021/10/12 07:07:31;;;;;;;;;;;;;;;8.73;78.23;98190.83;1656555;85;25048;-86
2021/10/12 07:09:58;;;;;;;;;;;;;;;8.70;78.23;98191.88;1655073;85;20182;-84
2021/10/12 07:12:27;;;;;;;;;;;;;;;8.72;78.26;98192.63;1659286;85;24911;-83
2021/10/12 07:14:53;;;;;;;;;;;;;;;8.76;78.28;98196.70;1660951;85;21894;-86
2021/10/12 07:17:19;;;;;;;;;;;;;;;8.83;78.36;98193.69;1656752;85;26042;-86
2021/10/12 07:19:46;;;;;;;;;;;;;;;8.89;78.42;98196.70;1657083;85;24201;-86
2021/10/12 07:22:12;;;;;;;;;;;;;;;8.93;78.48;98198.66;1657459;85;20207;-85
2021/10/12 07:24:38;;;;;;;;;;;;;;;8.97;78.54;98197.03;1656325;85;24769;-86
2021/10/12 07:27:04;;;;;;;;;;;;;;;8.98;78.58;98199.18;1656292;85;22028;-83
2021/10/12 07:29:30;;;;;;;;;;;;;;;8.96;78.63;98199.73;1663642;85;26053;-86
2021/10/12 07:31:56;;;;;;;;;;;;;;;8.91;78.68;98198.75;1654918;85;24500;-86
2021/10/12 07:34:22;;;;;;;;;;;;;;;8.90;78.71;98198.38;1656000;86;20646;-82
2021/10/12 07:36:48;;;;;;;;;;;;;;;8.90;78.73;98201.45;1653767;85;24772;-84
2021/10/12 07:39:14;;;;;;;;;;;;;;;8.91;78.80;98198.75;1657217;85;22094;-85
2021/10/12 07:41:41;;;;;;;;;;;;;;;8.93;78.83;98192.13;1661049;85;26015;-84
2021/10/12 07:44:07;;;;;;;;;;;;;;;8.98;78.93;98195.27;1655294;85;24412;-84
2021/10/12 07:46:37;;;;;;;;;;;;;;;9.03;79.00;98191.41;1657520;85;20216;-83
2021/10/12 07:49:01;;;;;;;;;;;;;;;9.09;79.06;98185.77;1656196;85;25414;-87
2021/10/12 07:51:28;;;;;;;;;;;;;;;9.14;79.16;98184.16;1647526;85;22128;-83
2021/10/12 07:53:57;;;;;;;;;;;;;;;9.21;79.26;98184.11;1643887;86;26078;-84
2021/10/12 07:56:38;;;;;;;;;;;;;;;9.26;79.34;98183.80;1646757;84;24969;-87
2021/10/12 07:59:07;;;;;;;;;;;;;;;9.27;79.39;98186.31;1616193;86;34922;-86
2021/10/12 08:01:35;;;;;;;;;;;;;;;9.35;79.46;98195.73;1646658;84;24874;-83
2021/10/12 08:04:01;;;;;;;;;;;;;;;9.41;79.54;98184.88;1645820;86;21962;-83
2021/10/12 08:06:29;;;;;;;;;;;;;;;9.47;79.63;98181.00;1640857;86;26039;-85
2021/10/12 08:08:56;;;;;;;;;;;;;;;9.55;79.70;98183.44;1639985;86;24417;-85
2021/10/12 08:11:24;;;;;;;;;;;;;;;9.63;79.78;98185.05;1644125;86;20303;-86
2021/10/12 08:13:52;;;;;;;;;;;;;;;9.67;79.81;98180.44;1644768;85;25627;-86
2021/10/12 08:16:20;;;;;;;;;;;;;;;9.65;79.83;98176.62;1613630;86;21886;-86
2021/10/12 08:18:46;;;;;;;;;;;;;;;9.64;79.85;98176.28;1636110;86;25971;-87
2021/10/12 08:21:12;;;;;;;;;;;;;;;9.64;79.86;98177.59;1645756;86;24472;-87
2021/10/12 08:23:39;;;;;;;;;;;;;;;9.63;79.85;98174.61;1646471;86;20277;-87
2021/10/12 08:26:09;;;;;;;;;;;;;;;9.61;79.83;98169.95;1643478;86;24808;-87
2021/10/12 08:28:32;;;;;;;;;;;;;;;9.63;79.82;98176.38;1639415;85;22050;-87
2021/10/12 08:30:59;;;;;;;;;;;;;;;9.63;79.85;98171.99;1639365;85;26038;-88
2021/10/12 08:33:26;;;;;;;;;;;;;;;9.64;79.86;98169.75;1638733;86;24517;-87
2021/10/12 08:35:57;;;;;;;;;;;;;;;9.64;79.87;98173.67;1638265;86;20914;-87
2021/10/12 08:38:23;;;;;;;;;;;;;;;9.71;79.89;98174.55;1641632;86;24912;-83
2021/10/12 08:40:50;;;;;;;;;;;;;;;9.76;79.90;98173.28;1641938;86;21976;-87
2021/10/12 08:43:18;;;;;;;;;;;;;;;9.79;79.94;98165.67;1645013;86;26146;-83
2021/10/12 08:45:44;;;;;;;;;;;;;;;9.86;80.00;98166.92;1630603;85;24543;-83
2021/10/12 08:48:11;;;;;;;;;;;;;;;9.95;80.08;98159.72;1643620;85;20338;-85
2021/10/12 08:50:37;;;;;;;;;;;;;;;10.05;80.12;98160.73;1641817;85;24755;-88
2021/10/12 08:53:08;;;;;;;;;;;;;;;10.11;80.17;98162.90;1649972;85;21921;-87
2021/10/12 08:55:31;;;;;;;;;;;;;;;10.17;80.19;98158.57;1647842;85;26067;-88
2021/10/12 08:57:57;;;;;;;;;;;;;;;10.23;80.24;98158.59;1649976;85;24513;-87
2021/10/12 09:00:28;;;;;;;;;;;;;;;10.28;80.28;98154.70;1650512;85;20563;-83
2021/10/12 09:05:57;;;;;;;;;;;;;;;10.42;80.33;98145.83;1620645;86;22218;-83
2021/10/12 09:08:28;;;;;;;;;;;;;;;10.26;80.29;98142.67;1600981;87;21181;-87
2021/10/12 09:10:57;;;;;;;;;;;;;;;10.04;80.12;98151.20;1630959;86;23993;-88
2021/10/12 09:13:23;;;;;;;;;;;;;;;10.01;80.00;98156.67;1635579;86;20536;-86
2021/10/12 09:16:06;;;;;;;;;;;;;;;10.02;79.97;98159.19;1631743;86;24721;-88
2021/10/12 09:18:52;;;;;;;;;;;;;;;10.05;79.99;98151.58;1635443;86;21612;-84
2021/10/12 09:21:28;;;;;;;;;;;;;;;10.12;79.99;98147.58;1632159;86;25968;-84
2021/10/12 09:23:56;;;;;;;;;;;;;;;10.17;79.96;98145.97;1633056;86;23900;-84
2021/10/12 09:26:24;;;;;;;;;;;;;;;10.24;80.00;98138.88;1633494;84;20258;-84
2021/10/12 09:28:50;;;;;;;;;;;;;;;10.27;79.98;98134.72;1630609;86;24814;-83
2021/10/12 09:31:16;;;;;;;;;;;;;;;10.26;79.94;98136.97;1632779;86;22249;-84
2021/10/12 09:33:46;;;;;;;;;;;;;;;10.26;79.88;98133.05;1630981;86;21829;-88
2021/10/12 09:36:14;;;;;;;;;;;;;;;10.32;79.84;98136.52;1632083;86;24421;-84
2021/10/12 09:38:46;;;;;;;;;;;;;;;10.40;79.82;98131.58;1597054;87;20282;-88
2021/10/12 09:41:12;;;;;;;;;;;;;;;10.47;79.81;98124.92;1648886;85;24798;-84
2021/10/12 09:43:38;;;;;;;;;;;;;;;10.57;79.80;98120.33;1647630;85;22120;-88
2021/10/12 09:46:06;;;;;;;;;;;;;;;10.65;79.79;98115.34;1647941;85;26046;-84
2021/10/12 09:48:33;;;;;;;;;;;;;;;10.70;79.76;98109.28;1597738;86;24588;-84
2021/10/12 09:51:09;;;;;;;;;;;;;;;10.75;79.72;98109.77;1618115;87;20338;-84
2021/10/12 09:53:37;;;;;;;;;;;;;;;10.82;79.68;98098.73;1629350;87;25176;-87
2021/10/12 09:56:03;;;;;;;;;;;;;;;10.86;79.64;98100.63;1627116;86;21411;-87
2021/10/12 09:58:30;;;;;;;;;;;;;;;10.91;79.64;98097.18;1639643;85;26188;-87
2021/10/12 10:00:58;;;;;;;;;;;;;;;10.92;79.60;98098.86;1640155;86;24502;-83
2021/10/12 10:03:24;;;;;;;;;;;;;;;10.95;79.55;98086.86;1599597;88;20329;-84
2021/10/12 10:05:53;;;;;;;;;;;;;;;10.88;79.47;98093.03;1652645;84;20191;-87
2021/10/12 10:08:20;;;;;;;;;;;;;;;10.89;79.39;98089.47;1641908;86;21973;-85
2021/10/12 10:10:47;;;;;;;;;;;;;;;10.96;79.31;98078.05;1640651;86;25477;-85
2021/10/12 10:13:15;;;;;;;;;;;;;;;11.05;79.25;98085.19;1639342;86;24521;-84
2021/10/12 10:15:41;;;;;;;;;;;;;;;11.13;79.19;98088.50;1640307;85;20271;-85
2021/10/12 10:18:07;;;;;;;;;;;;;;;11.16;79.10;98080.42;1644200;86;24801;-85
2021/10/12 10:20:34;;;;;;;;;;;;;;;11.28;79.04;98081.63;1640984;86;21925;-85
2021/10/12 10:23:02;;;;;;;;;;;;;;;11.40;78.98;98082.92;1639893;86;25871;-83
2021/10/12 10:25:38;;;;;;;;;;;;;;;11.47;78.88;98078.38;1640424;86;24516;-87
2021/10/12 10:28:17;;;;;;;;;;;;;;;11.47;78.72;98067.05;1639969;85;20300;-84
2021/10/12 10:30:45;;;;;;;;;;;;;;;11.46;78.53;98067.53;1639751;86;24712;-85
2021/10/12 10:33:24;;;;;;;;;;;;;;;11.48;78.30;98063.01;1644813;86;22184;-84
2021/10/12 10:35:52;;;;;;;;;;;;;;;11.50;78.10;98062.90;1641624;84;26722;-85
2021/10/12 10:38:23;;;;;;;;;;;;;;;11.44;77.87;98065.53;1640173;85;25120;-85
2021/10/12 10:40:50;;;;;;;;;;;;;;;11.42;77.67;98054.80;1640301;86;20224;-88
2021/10/12 10:43:19;;;;;;;;;;;;;;;11.44;77.50;98056.83;1639416;86;25638;-86
2021/10/12 10:45:50;;;;;;;;;;;;;;;11.42;77.28;98053.02;1641451;86;22029;-88
2021/10/12 10:48:18;;;;;;;;;;;;;;;11.52;77.11;98049.17;1643605;86;26673;-85
2021/10/12 10:50:44;;;;;;;;;;;;;;;11.61;77.00;98045.84;1640413;86;24752;-87
2021/10/12 10:53:12;;;;;;;;;;;;;;;11.63;76.86;98039.50;1646201;85;20269;-83
2021/10/12 10:55:39;;;;;;;;;;;;;;;11.61;76.66;98040.60;1646227;85;24825;-84
2021/10/12 10:58:10;;;;;;;;;;;;;;;11.56;76.39;98031.80;1650518;85;21990;-83
2021/10/12 11:00:38;;;;;;;;;;;;;;;11.70;76.20;98036.75;1596462;87;26913;-88
2021/10/12 11:03:04;;;;;;;;;;;;;;;11.80;76.07;98029.00;1649049;84;24473;-86
2021/10/12 11:05:34;;;;;;;;;;;;;;;11.89;75.94;98025.63;1648685;85;20373;-88
2021/10/12 11:08:07;;;;;;;;;;;;;;;11.94;75.77;98020.03;1649715;85;24696;-86
2021/10/12 11:10:33;;;;;;;;;;;;;;;11.94;75.63;98019.55;1647885;85;21983;-84
2021/10/12 11:12:59;;;;;;;;;;;;;;;11.93;75.43;98010.48;1653519;85;26066;-87
2021/10/12 11:15:25;;;;;;;;;;;;;;;11.89;75.23;98012.51;1647553;85;24431;-87
2021/10/12 11:18:03;;;;;;;;;;;;;;;11.84;74.99;98009.44;1644624;85;20149;-83
2021/10/12 11:20:31;;;;;;;;;;;;;;;11.85;74.78;98003.71;1648970;85;25016;-84
2021/10/12 11:22:57;;;;;;;;;;;;;;;11.86;74.64;97999.66;1646808;85;22040;-83
2021/10/12 11:25:25;;;;;;;;;;;;;;;11.89;74.50;98003.84;1648458;85;26145;-83
2021/10/12 11:27:51;;;;;;;;;;;;;;;11.90;74.39;97997.61;1649670;85;24423;-83
2021/10/12 11:30:17;;;;;;;;;;;;;;;11.98;74.32;97996.04;1649035;85;20323;-83
2021/10/12 11:32:45;;;;;;;;;;;;;;;12.04;74.29;97989.45;1648583;85;24770;-83
2021/10/12 11:35:12;;;;;;;;;;;;;;;12.16;74.28;97994.50;1599795;86;22050;-84
2021/10/12 11:37:52;;;;;;;;;;;;;;;12.22;74.22;97989.22;1648176;85;26299;-84
2021/10/12 11:40:19;;;;;;;;;;;;;;;12.26;74.10;97988.02;1599847;87;24509;-85
2021/10/12 11:42:46;;;;;;;;;;;;;;;12.28;73.93;97980.00;1648644;85;20182;-85
2021/10/12 11:45:12;;;;;;;;;;;;;;;12.30;73.75;97980.23;1649707;85;25048;-86
2021/10/12 11:47:38;;;;;;;;;;;;;;;12.34;73.60;97986.89;1648435;85;21978;-88
2021/10/12 11:50:13;;;;;;;;;;;;;;;12.38;73.45;97979.09;1646928;85;26812;-88
2021/10/12 11:52:39;;;;;;;;;;;;;;;12.39;73.29;97975.52;1644651;85;24662;-88
2021/10/12 11:55:12;;;;;;;;;;;;;;;12.46;73.09;97971.91;1639939;85;20259;-88
2021/10/12 11:57:40;;;;;;;;;;;;;;;12.46;72.92;97971.42;1635791;85;25839;-84
2021/10/12 12:00:06;;;;;;;;;;;;;;;12.44;72.69;97973.81;1640547;85;21990;-84
2021/10/12 12:02:32;;;;;;;;;;;;;;;12.41;72.45;97967.53;1640474;85;26756;-84
2021/10/12 12:04:59;;;;;;;;;;;;;;;12.36;72.20;97968.40;1638901;85;24430;-84
2021/10/12 12:07:26;;;;;;;;;;;;;;;12.32;71.94;97963.90;1639208;85;20238;-84
2021/10/12 12:09:53;;;;;;;;;;;;;;;12.27;71.69;97962.14;1638120;85;25072;-83
2021/10/12 12:12:19;;;;;;;;;;;;;;;12.25;71.45;97961.44;1641350;85;21852;-83
2021/10/12 12:14:49;;;;;;;;;;;;;;;12.25;71.29;97959.28;1638814;85;26269;-84
2021/10/12 12:17:19;;;;;;;;;;;;;;;12.21;71.09;97956.09;1642168;85;24423;-84
2021/10/12 12:19:47;;;;;;;;;;;;;;;12.20;70.93;97954.43;1642797;85;20213;-85
2021/10/12 12:22:14;;;;;;;;;;;;;;;12.18;70.75;97959.44;1606529;87;25755;-84
2021/10/12 12:24:42;;;;;;;;;;;;;;;12.14;70.60;97951.84;1607789;87;22009;-88
2021/10/12 12:27:08;;;;;;;;;;;;;;;12.11;70.43;97948.63;1606482;87;26079;-87
2021/10/12 12:29:34;;;;;;;;;;;;;;;12.07;70.31;97945.44;1607821;87;24530;-83
2021/10/12 12:32:06;;;;;;;;;;;;;;;12.01;70.14;97943.32;1642939;85;20619;-83
2021/10/12 12:34:34;;;;;;;;;;;;;;;11.98;69.97;97942.28;1607421;86;25138;-83
2021/10/12 12:37:02;;;;;;;;;;;;;;;11.96;69.87;97942.04;1607590;87;22045;-84
2021/10/12 12:39:33;;;;;;;;;;;;;;;11.95;69.78;97935.96;1645126;85;26146;-87
2021/10/12 12:41:59;;;;;;;;;;;;;;;11.93;69.68;97932.66;1608343;87;24504;-87
2021/10/12 12:44:25;;;;;;;;;;;;;;;11.93;69.58;97931.34;1608984;87;20409;-87
2021/10/12 12:46:55;;;;;;;;;;;;;;;11.92;69.50;97924.91;1643298;85;24978;-87
2021/10/12 12:49:23;;;;;;;;;;;;;;;11.92;69.46;97922.28;1637702;86;21994;-83
2021/10/12 12:51:50;;;;;;;;;;;;;;;11.95;69.43;97918.92;1614773;87;26021;-83
2021/10/12 12:54:34;;;;;;;;;;;;;;;11.95;69.44;97910.22;1643215;86;24537;-84
2021/10/12 12:57:06;;;;;;;;;;;;;;;11.98;69.47;97905.56;1642587;86;20340;-84
2021/10/12 12:59:32;;;;;;;;;;;;;;;12.02;69.49;97892.54;1639698;86;25035;-88
2021/10/12 13:01:58;;;;;;;;;;;;;;;12.10;69.47;97890.12;1642195;86;21933;-85